Camberwell, United Kingdom
Current Conditions -  °F | °C
As of 5:50 PM on Friday 21 Nov 2014 (Local Time) from EGLC Reporting Station
Rain Showers Rain Showers  
Wind Chill: 44°   Ceiling: Unl
Heat Index: 48°   Visibility: 4mi
Dew Point: 45°   Wind: 10mph
Humidity: 87%   Direction: 110°ESE
Pressure: 29.97"   Gusts: NA
Location:  51.48°N, 0.09°W
Report Text: EGLC 211750Z 11009KT 6000 SHRA SCT010 09/07 Q1015
Loading
Personal Weather Stations






























Interactive Weather Map New forecast layout! Learn more

10-Day Weather Forecast

Advertisements
Track Severe Weather on mobile